Time;durP1;ratioP1;P1;durP2;ratioP2;P2;SDS_P1;SDS_P2;PMS_P1;PMS_P2;Temp;Humidity;BMP_temperature;BMP_pressure;BME280_temperature;BME280_humidity;BME280_pressure;Samples;Min_cycle;Max_cycle;Signal;HPM_P1;HPM_P2
2022/12/06 00:02:04;;;;;;;19.55;10.82;;;;;;;7.46;100.00;100734.47;5033794;28;20034;-70
2022/12/06 00:04:30;;;;;;;21.05;10.23;;;;;;;7.23;100.00;100683.13;5032008;28;20065;-70
2022/12/06 00:06:57;;;;;;;24.85;10.65;;;;;;;7.56;100.00;100748.75;5033720;28;20026;-67
2022/12/06 00:09:25;;;;;;;27.38;10.82;;;;;;;7.25;100.00;100696.59;5033901;28;20026;-69
2022/12/06 00:11:53;;;;;;;22.55;9.82;;;;;;;7.49;100.00;100731.91;5033517;28;20033;-69
2022/12/06 00:14:20;;;;;;;19.40;9.73;;;;;;;7.41;100.00;100713.38;5033549;28;20068;-69
2022/12/06 00:16:46;;;;;;;17.77;9.93;;;;;;;7.18;100.00;100662.03;5032731;28;20499;-69
2022/12/06 00:19:14;;;;;;;18.27;9.63;;;;;;;7.24;100.00;100654.44;5052684;28;20112;-70
2022/12/06 00:21:40;;;;;;;20.55;10.05;;;;;;;7.29;100.00;100694.03;5053384;28;20041;-69
2022/12/06 00:24:15;;;;;;;24.52;9.65;;;;;;;7.24;100.00;100670.47;5051539;28;20082;-72
2022/12/06 00:26:43;;;;;;;22.85;9.75;;;;;;;7.67;100.00;100737.75;5051938;28;20040;-69
2022/12/06 00:29:15;;;;;;;18.40;9.80;;;;;;;6.89;100.00;100592.19;5051675;28;20048;-70
2022/12/06 00:31:41;;;;;;;22.90;10.95;;;;;;;7.49;100.00;100731.91;5053154;28;20048;-69
2022/12/06 00:34:07;;;;;;;20.58;10.38;;;;;;;7.62;100.00;100738.63;5052770;28;20129;-72
2022/12/06 00:36:35;;;;;;;22.98;10.85;;;;;;;7.12;100.00;100640.16;5052868;28;20040;-69
2022/12/06 00:39:03;;;;;;;17.98;9.65;;;;;;;7.15;100.00;100651.97;5053000;28;20044;-70
2022/12/06 00:41:29;;;;;;;23.00;10.57;;;;;;;7.07;100.00;100644.41;5051774;28;20039;-70
2022/12/06 00:43:55;;;;;;;24.75;10.40;;;;;;;7.17;100.00;100663.72;5052902;28;20528;-70
2022/12/06 00:46:23;;;;;;;21.33;9.65;;;;;;;7.09;100.00;100657.03;5052410;28;20040;-70
2022/12/06 00:48:52;;;;;;;17.48;10.07;;;;;;;7.14;100.00;100643.53;5051545;28;20525;-70
2022/12/06 00:51:19;;;;;;;26.48;11.10;;;;;;;7.08;100.00;100630.06;5053011;28;20025;-71
2022/12/06 00:53:45;;;;;;;17.85;10.60;;;;;;;7.69;100.00;100727.63;5052978;28;20115;-70
2022/12/06 00:56:11;;;;;;;18.95;9.80;;;;;;;7.62;100.00;100709.09;5052491;28;20060;-71
2022/12/06 00:58:37;;;;;;;20.50;10.65;;;;;;;7.66;100.00;100708.25;5053175;28;20033;-70
2022/12/06 01:01:10;;;;;;;18.92;9.85;;;;;;;7.83;100.00;100719.13;5051954;28;20060;-70
2022/12/06 01:03:36;;;;;;;18.38;9.70;;;;;;;7.40;100.00;100658.59;5052677;28;20170;-70
2022/12/06 01:06:06;;;;;;;18.90;9.48;;;;;;;7.60;100.00;100700.69;5052163;28;20108;-70
2022/12/06 01:08:33;;;;;;;22.00;9.98;;;;;;;7.72;100.00;100702.31;5050658;28;20029;-70
2022/12/06 01:10:59;;;;;;;23.60;10.55;;;;;;;7.31;100.00;100653.59;5051691;28;20040;-70
2022/12/06 01:13:25;;;;;;;18.02;9.98;;;;;;;7.84;100.00;100703.06;5051732;28;20040;-71
2022/12/06 01:15:50;;;;;;;20.70;9.93;;;;;;;7.21;100.00;100614.00;5052118;28;20144;-69
2022/12/06 01:18:16;;;;;;;16.65;9.45;;;;;;;7.31;100.00;100623.25;5050940;28;20027;-70
2022/12/06 01:20:41;;;;;;;20.42;9.88;;;;;;;7.32;100.00;100658.63;5052280;28;20041;-70
2022/12/06 01:23:07;;;;;;;21.77;10.05;;;;;;;6.74;100.00;100541.72;5052225;28;20526;-69
2022/12/06 01:25:32;;;;;;;18.52;9.23;;;;;;;7.55;100.00;100668.63;5051920;28;20083;-69
2022/12/06 01:27:58;;;;;;;22.35;9.73;;;;;;;7.32;100.00;100650.19;5050794;28;20036;-70
2022/12/06 01:30:24;;;;;;;18.77;10.00;;;;;;;7.24;100.00;100642.66;5052367;28;20029;-69
2022/12/06 01:32:49;;;;;;;17.75;9.88;;;;;;;6.94;100.00;100588.00;5050600;28;20095;-70
2022/12/06 01:35:15;;;;;;;21.23;10.55;;;;;;;7.12;100.00;100598.88;5051391;28;20461;-70
2022/12/06 01:37:40;;;;;;;19.85;10.70;;;;;;;7.55;100.00;100674.53;5050477;28;20553;-70
2022/12/06 01:40:06;;;;;;;19.35;10.63;;;;;;;7.48;100.00;100654.34;5051724;28;20460;-69
2022/12/06 01:42:31;;;;;;;16.95;9.85;;;;;;;6.76;100.00;100527.41;5051622;28;20039;-70
2022/12/06 01:44:58;;;;;;;17.48;9.65;;;;;;;7.40;100.00;100658.59;5050371;28;20037;-69
2022/12/06 01:47:29;;;;;;;17.30;9.85;;;;;;;7.64;100.00;100677.06;5051406;28;20032;-70
2022/12/06 01:50:01;;;;;;;22.58;10.35;;;;;;;7.82;100.00;100681.16;5052132;28;20495;-69
2022/12/06 01:52:38;;;;;;;17.00;9.88;;;;;;;7.56;100.00;100642.50;5051593;28;20086;-70
2022/12/06 01:55:07;;;;;;;21.65;9.98;;;;;;;7.20;100.00;100589.56;5051215;28;20051;-69
2022/12/06 01:57:33;;;;;;;19.58;9.88;;;;;;;7.11;100.00;100587.91;5050158;28;20067;-70
2022/12/06 01:59:59;;;;;;;14.90;9.35;;;;;;;7.21;100.00;100586.19;5049643;28;20415;-70
2022/12/06 02:02:25;;;;;;;17.88;10.50;;;;;;;7.26;100.00;100604.72;5050940;28;20041;-70
2022/12/06 02:04:51;;;;;;;20.38;10.45;;;;;;;7.39;100.00;100598.75;5051620;28;20553;-70
2022/12/06 02:07:19;;;;;;;17.15;10.20;;;;;;;7.64;100.00;100655.97;5050170;28;20064;-70
2022/12/06 02:09:45;;;;;;;19.27;10.10;;;;;;;7.52;100.00;100651.81;5050209;28;20028;-70
2022/12/06 02:12:13;;;;;;;20.08;9.73;;;;;;;7.63;100.00;100651.72;5051793;28;20119;-69
2022/12/06 02:14:41;;;;;;;15.82;9.75;;;;;;;7.60;100.00;100629.84;5050880;28;20033;-70
2022/12/06 02:17:25;;;;;;;16.20;9.35;;;;;;;7.77;100.00;100647.44;5051089;28;20119;-70
2022/12/06 02:20:02;;;;;;;16.60;9.77;;;;;;;7.72;100.00;100654.22;5051294;28;20044;-70
2022/12/06 02:22:58;;;;;;;15.73;9.57;;;;;;;7.81;100.00;100655.00;5048906;28;20059;-70
2022/12/06 02:25:41;;;;;;;13.75;9.25;;;;;;;7.84;100.00;100644.03;5051448;28;20025;-69
2022/12/06 02:28:28;;;;;;;15.20;9.65;;;;;;;7.80;100.00;100643.19;5050685;28;20025;-70
2022/12/06 02:31:10;;;;;;;18.23;9.38;;;;;;;7.68;100.00;100639.91;5051192;28;20094;-69
2022/12/06 02:33:53;;;;;;;17.35;9.65;;;;;;;7.67;100.00;100648.34;5050156;28;20391;-70
2022/12/06 02:36:30;;;;;;;18.48;9.38;;;;;;;7.50;100.00;100595.31;5050835;28;20124;-69
2022/12/06 02:39:10;;;;;;;16.77;9.48;;;;;;;7.31;100.00;100549.91;5050681;28;20028;-69
2022/12/06 02:41:44;;;;;;;17.20;9.35;;;;;;;7.72;100.00;100641.56;5050372;28;20037;-69
2022/12/06 02:44:19;;;;;;;16.88;9.57;;;;;;;7.21;100.00;100558.41;5050910;28;20037;-69
2022/12/06 02:46:47;;;;;;;14.30;9.38;;;;;;;7.64;100.00;100606.19;5050796;28;20036;-69
2022/12/06 02:49:14;;;;;;;16.00;9.65;;;;;;;7.84;100.00;100616.19;5050562;28;20029;-69
2022/12/06 02:51:40;;;;;;;16.77;10.27;;;;;;;7.51;100.00;100618.91;5049805;28;20418;-68
2022/12/06 02:54:08;;;;;;;15.45;10.27;;;;;;;7.43;100.00;100580.16;5049423;28;20391;-70
2022/12/06 02:56:34;;;;;;;16.48;10.27;;;;;;;7.31;100.00;100560.03;5050538;28;20032;-70
2022/12/06 02:59:00;;;;;;;16.85;9.85;;;;;;;7.42;100.00;100573.44;5049293;28;20037;-69
2022/12/06 03:01:30;;;;;;;16.33;9.60;;;;;;;7.21;100.00;100548.28;5048525;28;20045;-69
2022/12/06 03:04:07;;;;;;;17.10;10.18;;;;;;;7.61;100.00;100639.09;5050149;28;20128;-69
2022/12/06 03:06:54;;;;;;;15.63;10.40;;;;;;;7.70;100.00;100630.63;5050208;28;20087;-69
2022/12/06 03:09:45;;;;;;;18.50;10.20;;;;;;;7.85;100.00;100623.78;5050062;28;20079;-69
2022/12/06 03:12:23;;;;;;;18.87;9.97;;;;;;;7.64;100.00;100626.44;5047299;28;20045;-69
2022/12/06 03:14:57;;;;;;;16.75;10.00;;;;;;;7.81;100.00;100638.97;5050043;28;20286;-69
2022/12/06 03:17:30;;;;;;;17.40;9.27;;;;;;;7.90;100.00;100626.28;5049738;28;20039;-69
2022/12/06 03:20:02;;;;;;;18.92;10.20;;;;;;;7.38;100.00;100544.81;5049080;28;20124;-68
2022/12/06 03:22:41;;;;;;;18.27;9.27;;;;;;;7.76;100.00;100600.22;5050235;28;20044;-69
2022/12/06 03:25:09;;;;;;;16.17;9.80;;;;;;;7.70;100.00;100638.22;5048854;28;20091;-69
2022/12/06 03:27:35;;;;;;;15.07;9.02;;;;;;;7.86;100.00;100633.03;5049791;28;20043;-69
2022/12/06 03:30:07;;;;;;;18.67;9.30;;;;;;;7.12;100.00;100478.38;5050401;28;20575;-69
2022/12/06 03:32:36;;;;;;;14.32;9.00;;;;;;;7.85;100.00;100607.75;5048112;28;20484;-69
2022/12/06 03:35:07;;;;;;;17.20;8.93;;;;;;;7.42;100.00;100551.53;5053544;28;20029;-68
2022/12/06 03:37:36;;;;;;;18.58;9.13;;;;;;;7.50;100.00;100551.47;5054181;28;20021;-69
2022/12/06 03:40:14;;;;;;;12.82;8.70;;;;;;;7.82;100.00;100623.78;5053986;28;20041;-70
2022/12/06 03:42:39;;;;;;;15.75;9.05;;;;;;;7.66;100.00;100614.63;5054058;28;20124;-69
2022/12/06 03:45:06;;;;;;;16.20;8.43;;;;;;;7.98;100.00;100619.47;5054275;28;20025;-69
2022/12/06 03:47:50;;;;;;;13.98;9.30;;;;;;;7.98;100.00;100629.59;5052674;28;20100;-69
2022/12/06 03:50:21;;;;;;;14.50;9.05;;;;;;;7.19;100.00;100480.00;5054171;28;20029;-69
2022/12/06 03:52:50;;;;;;;15.63;9.07;;;;;;;7.44;100.00;100526.22;5054136;28;20037;-69
2022/12/06 03:55:15;;;;;;;13.52;9.20;;;;;;;7.63;100.00;100550.53;5053716;28;20032;-69
2022/12/06 03:57:41;;;;;;;13.77;9.25;;;;;;;7.49;100.00;100529.53;5053806;28;20033;-68
2022/12/06 04:00:07;;;;;;;14.73;9.13;;;;;;;8.00;100.00;100610.19;5053701;28;20049;-68
2022/12/06 04:02:32;;;;;;;15.32;9.55;;;;;;;7.86;100.00;100607.72;5051958;28;20392;-69
2022/12/06 04:04:58;;;;;;;17.92;9.75;;;;;;;7.96;100.00;100617.78;5053439;28;20041;-69
2022/12/06 04:07:23;;;;;;;17.10;9.85;;;;;;;7.56;100.00;100536.25;5053310;28;20037;-69
2022/12/06 04:09:51;;;;;;;17.38;9.10;;;;;;;7.68;100.00;100607.00;5053892;28;20470;-69
2022/12/06 04:15:06;;;;;;;15.75;8.80;;;;;;;7.79;100.00;100592.59;5053138;28;20506;-68
2022/12/06 04:20:16;;;;;;;14.45;8.57;;;;;;;8.01;100.00;100621.13;5052380;28;20557;-68
2022/12/06 04:25:25;;;;;;;18.02;9.15;;;;;;;7.76;100.00;100623.81;5045815;28;20210;-69
2022/12/06 04:38:47;;;;;;;17.88;9.80;;;;;;;7.67;100.00;100623.88;5047036;28;20039;-68
2022/12/06 04:43:40;;;;;;;12.98;8.60;;;;;;;7.54;100.00;100558.19;5051112;28;20021;-67
2022/12/06 04:44:03;;;;;;;16.90;9.55;;;;;;;7.73;100.00;100625.53;5052400;28;20051;-68
2022/12/06 04:46:29;;;;;;;14.27;9.07;;;;;;;7.72;100.00;100639.03;5051517;28;20090;-68
2022/12/06 04:48:54;;;;;;;15.98;9.07;;;;;;;7.28;100.00;100554.97;5052363;28;20033;-67
2022/12/06 04:51:21;;;;;;;13.50;8.02;;;;;;;7.88;100.00;100636.41;5052492;28;20043;-68
2022/12/06 04:53:46;;;;;;;16.10;9.20;;;;;;;7.81;100.00;100644.88;5052584;28;20024;-69
2022/12/06 04:56:12;;;;;;;21.75;10.35;;;;;;;7.61;100.00;100610.41;5051917;28;20048;-67
2022/12/06 04:58:37;;;;;;;17.17;9.45;;;;;;;7.51;100.00;100571.69;5050326;28;20119;-68
2022/12/06 05:01:02;;;;;;;14.18;9.60;;;;;;;7.88;100.00;100617.84;5050597;28;20067;-67
2022/12/06 05:03:28;;;;;;;19.50;9.75;;;;;;;7.92;100.00;100631.31;5051552;28;20059;-68
2022/12/06 05:05:53;;;;;;;16.58;10.25;;;;;;;7.40;100.00;100530.47;5051903;28;20025;-67
2022/12/06 05:08:19;;;;;;;16.35;10.48;;;;;;;8.04;100.00;100616.06;5052147;28;20060;-67
2022/12/06 05:10:48;;;;;;;15.20;10.75;;;;;;;7.66;100.00;100541.25;5051812;28;20032;-68
2022/12/06 05:13:15;;;;;;;19.73;11.10;;;;;;;7.71;100.00;100596.84;5051977;28;20021;-68
2022/12/06 05:15:54;;;;;;;17.00;11.23;;;;;;;7.70;100.00;100555.56;5052189;28;20044;-69
2022/12/06 05:18:20;;;;;;;18.05;11.32;;;;;;;7.61;100.00;100539.56;5051594;28;20483;-69
2022/12/06 05:20:46;;;;;;;23.35;13.38;;;;;;;7.55;100.00;100564.91;5051978;28;20111;-67
2022/12/06 05:23:11;;;;;;;21.50;12.30;;;;;;;7.61;100.00;100544.63;5050050;28;20424;-68
2022/12/06 05:25:37;;;;;;;25.70;15.55;;;;;;;8.01;100.00;100613.53;5051229;28;20116;-67
2022/12/06 05:28:03;;;;;;;28.35;16.98;;;;;;;7.71;100.00;100552.16;5050809;28;20075;-68
2022/12/06 05:30:28;;;;;;;33.85;17.77;;;;;;;7.52;100.00;100515.19;5051496;28;20029;-67
2022/12/06 05:32:53;;;;;;;27.90;16.13;;;;;;;8.09;100.00;100597.44;5051237;28;20036;-66
2022/12/06 05:35:19;;;;;;;26.13;16.27;;;;;;;7.95;100.00;100560.41;5049922;28;20029;-68
2022/12/06 05:37:44;;;;;;;28.60;16.63;;;;;;;7.93;100.00;100617.81;5041797;28;20059;-68
2022/12/06 05:40:10;;;;;;;33.15;19.85;;;;;;;7.89;100.00;100610.25;5050349;28;20060;-69
2022/12/06 05:42:38;;;;;;;40.63;21.27;;;;;;;8.01;100.00;100616.91;5049847;28;20126;-67
2022/12/06 05:45:03;;;;;;;42.17;21.88;;;;;;;7.93;100.00;100527.53;5046815;28;20388;-71
2022/12/06 05:47:29;;;;;;;39.28;20.10;;;;;;;8.37;100.00;100618.34;5029292;28;20033;-67
2022/12/06 05:49:54;;;;;;;33.75;19.15;;;;;;;8.23;100.00;100607.44;5046619;28;20025;-66
2022/12/06 05:52:20;;;;;;;28.20;16.05;;;;;;;8.11;100.00;100602.47;5049582;28;20479;-67
2022/12/06 05:54:45;;;;;;;21.17;13.40;;;;;;;7.82;100.00;100579.94;5050531;28;20615;-66
2022/12/06 05:57:10;;;;;;;25.65;15.27;;;;;;;7.53;100.00;100533.72;5049292;28;20635;-65
2022/12/06 05:59:36;;;;;;;27.13;15.85;;;;;;;8.15;100.00;100611.72;5049972;28;20136;-65
2022/12/06 06:02:01;;;;;;;24.67;17.17;;;;;;;8.09;100.00;100620.22;5049192;28;20091;-66
2022/12/06 06:04:27;;;;;;;23.83;18.27;;;;;;;8.13;100.00;100631.16;5050085;28;20203;-66
2022/12/06 06:06:52;;;;;;;28.08;19.80;;;;;;;7.54;100.00;100516.03;5049926;28;20025;-66
2022/12/06 06:09:18;;;;;;;29.70;18.60;;;;;;;7.58;100.00;100529.50;5048472;28;20208;-66
2022/12/06 06:11:43;;;;;;;29.10;17.92;;;;;;;7.69;100.00;100548.81;5049408;28;20029;-66
2022/12/06 06:14:08;;;;;;;23.60;14.30;;;;;;;8.27;100.00;100637.00;5049795;28;20582;-66
2022/12/06 06:16:34;;;;;;;22.50;14.60;;;;;;;7.91;100.00;100569.72;5048217;28;20091;-71
2022/12/06 06:19:00;;;;;;;27.38;13.95;;;;;;;8.13;100.00;100603.31;5049100;28;20033;-65
2022/12/06 06:21:26;;;;;;;28.70;14.77;;;;;;;7.73;100.00;100519.25;5049140;28;20137;-65
2022/12/06 06:23:52;;;;;;;31.40;16.60;;;;;;;7.43;100.00;100487.44;5050809;28;20040;-66
2022/12/06 06:26:17;;;;;;;27.48;16.70;;;;;;;7.78;100.00;100552.97;5049477;28;20423;-66
2022/12/06 06:28:43;;;;;;;21.50;14.48;;;;;;;7.67;100.00;100560.63;5050258;28;20025;-65
2022/12/06 06:31:08;;;;;;;26.08;15.45;;;;;;;8.12;100.00;100627.78;5049912;28;20033;-66
2022/12/06 06:33:35;;;;;;;33.65;18.33;;;;;;;8.14;100.00;100636.22;5049527;28;20366;-66
2022/12/06 06:36:00;;;;;;;84.97;41.58;;;;;;;7.47;100.00;100549.78;5050741;28;20037;-66
2022/12/06 06:38:26;;;;;;;25.02;15.02;;;;;;;7.92;100.00;100623.72;5050128;28;20029;-66
2022/12/06 06:40:51;;;;;;;31.15;18.20;;;;;;;7.11;100.00;100485.97;5049039;28;20481;-65
2022/12/06 06:43:17;;;;;;;31.60;19.65;;;;;;;7.67;100.00;100574.97;5049235;28;20021;-66
2022/12/06 06:46:00;;;;;;;32.35;19.50;;;;;;;8.08;100.00;100613.47;5048061;28;20482;-66
2022/12/06 06:48:28;;;;;;;31.48;15.95;;;;;;;7.94;100.00;100606.84;5050260;28;20119;-66
2022/12/06 06:50:54;;;;;;;28.33;15.27;;;;;;;8.01;100.00;100611.84;5049212;28;20055;-66
2022/12/06 06:53:19;;;;;;;25.40;14.60;;;;;;;8.12;100.00;100625.25;5049854;28;20028;-66
2022/12/06 06:55:47;;;;;;;28.33;14.50;;;;;;;7.82;100.00;100552.91;5050082;28;20040;-65
2022/12/06 06:58:13;;;;;;;31.67;17.05;;;;;;;7.98;100.00;100578.97;5050154;28;20178;-66
2022/12/06 07:00:40;;;;;;;25.50;15.15;;;;;;;7.95;100.00;100561.25;5048465;28;20465;-66
2022/12/06 07:03:05;;;;;;;31.63;16.77;;;;;;;8.27;100.00;100620.13;5050081;28;20037;-66
2022/12/06 07:05:31;;;;;;;33.00;20.15;;;;;;;8.19;100.00;100608.31;5050301;28;20025;-67
2022/12/06 07:07:56;;;;;;;36.15;19.48;;;;;;;8.07;100.00;100585.63;5049628;28;20036;-66
2022/12/06 07:10:26;;;;;;;28.70;16.40;;;;;;;7.84;100.00;100563.84;5048241;28;20111;-66
2022/12/06 07:12:52;;;;;;;24.80;12.75;;;;;;;8.15;100.00;100610.03;5048619;28;20128;-66
2022/12/06 07:15:19;;;;;;;22.02;12.60;;;;;;;7.75;100.00;100547.91;5049936;28;20025;-67
2022/12/06 07:17:45;;;;;;;24.58;13.63;;;;;;;7.89;100.00;100548.66;5050372;28;20029;-66
2022/12/06 07:20:10;;;;;;;23.63;12.90;;;;;;;8.22;100.00;100608.31;5048076;28;20408;-66
2022/12/06 07:22:36;;;;;;;22.58;11.57;;;;;;;8.11;100.00;100575.47;5049842;28;20505;-66
2022/12/06 07:25:01;;;;;;;18.27;11.85;;;;;;;8.39;100.00;100579.47;5050104;28;20535;-67
2022/12/06 07:27:26;;;;;;;20.88;13.95;;;;;;;8.60;100.00;100602.06;5049514;28;20075;-66
2022/12/06 07:29:52;;;;;;;22.13;11.13;;;;;;;8.32;100.00;100582.91;5050333;28;20056;-66
2022/12/06 07:32:17;;;;;;;19.35;10.02;;;;;;;8.49;100.00;100601.34;5049962;28;20170;-66
2022/12/06 07:34:42;;;;;;;18.05;9.63;;;;;;;7.43;100.00;100446.13;5050355;28;20025;-65
2022/12/06 07:37:08;;;;;;;19.25;10.15;;;;;;;8.58;100.00;100585.19;5049663;28;20025;-66
2022/12/06 07:39:33;;;;;;;23.27;10.57;;;;;;;8.57;100.00;100597.03;5049942;28;20029;-65
2022/12/06 07:47:40;;;;;;;24.25;8.43;;;;;;;8.35;100.00;100590.50;5032199;28;20422;-66
2022/12/06 07:50:08;;;;;;;21.50;10.10;;;;;;;8.31;100.00;100547.47;5049774;28;20021;-64
2022/12/06 07:52:35;;;;;;;20.38;9.60;;;;;;;8.27;100.00;100553.41;5049940;28;20029;-65
2022/12/06 07:55:01;;;;;;;17.45;10.20;;;;;;;8.68;100.00;100612.13;5049678;28;20035;-66
2022/12/06 07:57:27;;;;;;;19.55;10.25;;;;;;;8.80;100.00;100608.59;5049225;28;20025;-66
2022/12/06 07:59:52;;;;;;;16.42;8.63;;;;;;;8.67;100.00;100603.69;5048050;28;20051;-65
2022/12/06 08:02:21;;;;;;;18.52;8.35;;;;;;;8.42;100.00;100581.13;5049821;28;20033;-65
2022/12/06 08:04:47;;;;;;;19.17;9.52;;;;;;;8.65;100.00;100581.75;5049267;28;20029;-66
2022/12/06 08:07:13;;;;;;;24.33;12.93;;;;;;;8.84;100.00;100578.16;5049350;28;20036;-66
2022/12/06 08:09:39;;;;;;;20.60;11.60;;;;;;;8.61;100.00;100525.19;5049656;28;20076;-66
2022/12/06 08:12:06;;;;;;;23.38;14.40;;;;;;;8.67;100.00;100540.34;5049457;28;20095;-66
2022/12/06 08:14:31;;;;;;;28.90;13.98;;;;;;;8.89;100.00;100601.78;5049251;28;20053;-65
2022/12/06 08:16:57;;;;;;;16.63;9.18;;;;;;;8.56;100.00;100548.88;5047733;28;20064;-66
2022/12/06 08:19:22;;;;;;;18.45;8.43;;;;;;;9.07;100.00;100614.22;5049115;28;20557;-66
2022/12/06 08:21:47;;;;;;;20.40;9.20;;;;;;;8.89;100.00;100613.59;5051857;28;20407;-66
2022/12/06 08:24:13;;;;;;;16.98;9.75;;;;;;;8.47;100.00;100524.50;5053007;28;20075;-66
2022/12/06 08:26:39;;;;;;;19.60;9.55;;;;;;;8.68;100.00;100521.72;5052751;28;20032;-66
2022/12/06 08:29:04;;;;;;;17.00;9.00;;;;;;;9.12;100.00;100611.63;5052745;28;20029;-66
2022/12/06 08:31:30;;;;;;;14.48;7.35;;;;;;;8.94;100.00;100607.63;5053352;28;20090;-66
2022/12/06 08:33:56;;;;;;;13.88;8.45;;;;;;;9.16;100.00;100629.34;5052987;28;20483;-65
2022/12/06 08:36:23;;;;;;;18.38;9.57;;;;;;;9.14;100.00;100620.06;5052402;28;20033;-66
2022/12/06 08:38:50;;;;;;;21.45;11.75;;;;;;;9.19;100.00;100606.47;5052838;28;20517;-65
2022/12/06 08:44:02;;;;;;;21.00;13.32;;;;;;;9.14;100.00;100617.53;5052732;28;20150;-65
2022/12/06 08:46:31;;;;;;;24.83;17.80;;;;;;;8.98;100.00;100570.38;5051981;28;20040;-66
2022/12/06 08:48:57;;;;;;;20.05;12.02;;;;;;;8.42;100.00;100527.91;5051087;28;20052;-66
2022/12/06 08:51:23;;;;;;;19.52;10.98;;;;;;;8.95;100.00;100611.00;5052428;28;20033;-65
2022/12/06 08:53:50;;;;;;;14.65;9.65;;;;;;;8.88;100.00;100533.31;5051026;28;20029;-66
2022/12/06 08:56:15;;;;;;;18.15;10.82;;;;;;;9.20;100.00;100603.09;5050947;28;20036;-66
2022/12/06 08:58:41;;;;;;;14.70;9.45;;;;;;;8.02;100.00;100455.72;5052027;28;20021;-66
2022/12/06 09:01:15;;;;;;;20.25;12.05;;;;;;;8.61;100.00;100530.25;5052273;28;20084;-67
2022/12/06 09:03:40;;;;;;;20.42;11.93;;;;;;;9.16;100.00;100592.97;5050702;28;20044;-67
2022/12/06 09:06:07;;;;;;;16.20;9.80;;;;;;;8.06;100.00;100477.63;5051940;28;20029;-65
2022/12/06 09:08:33;;;;;;;16.73;11.25;;;;;;;8.62;100.00;100520.94;5051823;28;20048;-66
2022/12/06 09:10:58;;;;;;;17.40;11.43;;;;;;;8.97;100.00;100571.25;5052341;28;20036;-67
2022/12/06 09:13:24;;;;;;;17.38;9.85;;;;;;;8.70;100.00;100585.06;5050385;28;20499;-66
2022/12/06 09:15:49;;;;;;;16.33;9.32;;;;;;;8.62;100.00;100511.66;5051896;28;20029;-67
2022/12/06 09:18:15;;;;;;;19.00;11.65;;;;;;;9.06;100.00;100556.75;5051925;28;20033;-67
2022/12/06 09:20:41;;;;;;;21.48;14.60;;;;;;;9.02;100.00;100566.94;5052315;28;20036;-66
2022/12/06 09:23:06;;;;;;;24.38;15.90;;;;;;;8.45;100.00;100407.16;5051724;28;20056;-66
2022/12/06 09:25:32;;;;;;;16.65;13.13;;;;;;;9.18;100.00;100564.22;5051726;28;20091;-68
2022/12/06 09:27:59;;;;;;;18.52;12.35;;;;;;;9.13;100.00;100568.50;5050607;28;20029;-67
2022/12/06 09:30:25;;;;;;;22.10;15.70;;;;;;;8.92;100.00;100474.09;5051755;28;20025;-66
2022/12/06 09:32:52;;;;;;;23.70;19.60;;;;;;;8.57;100.00;100412.06;5050340;28;20128;-66
2022/12/06 09:35:18;;;;;;;22.17;17.60;;;;;;;9.35;100.00;100551.28;5050431;28;20040;-66
2022/12/06 09:37:44;;;;;;;24.77;18.88;;;;;;;9.31;100.00;100544.59;5052101;28;20033;-67
2022/12/06 09:40:39;;;;;;;24.17;17.00;;;;;;;9.40;100.00;100555.47;5051505;28;20494;-66
2022/12/06 09:43:13;;;;;;;23.77;17.15;;;;;;;9.20;100.00;100538.81;5045621;28;20037;-66
2022/12/06 09:46:17;;;;;;;24.75;16.65;;;;;;;9.61;100.00;100544.13;5051530;28;20499;-67
2022/12/06 09:49:24;;;;;;;22.17;16.48;;;;;;;9.61;100.00;100545.00;5009386;28;20121;-66
2022/12/06 09:52:07;;;;;;;13.82;11.05;;;;;;;9.30;100.00;100443.97;4963710;28;20125;-65
2022/12/06 09:54:33;;;;;;;14.82;11.63;;;;;;;9.89;100.00;100532.69;5045719;28;20041;-65
2022/12/06 09:57:42;;;;;;;17.50;13.48;;;;;;;10.00;100.00;100530.81;5051446;28;20404;-65
2022/12/06 10:00:16;;;;;;;19.73;15.07;;;;;;;9.75;100.00;100521.91;5045729;28;20045;-64
2022/12/06 10:03:09;;;;;;;18.75;14.38;;;;;;;9.62;100.00;100464.59;5051009;28;20025;-65
2022/12/06 10:05:49;;;;;;;16.10;10.48;;;;;;;9.74;100.00;100515.19;5051269;28;20099;-65
2022/12/06 10:08:42;;;;;;;16.10;9.82;;;;;;;9.66;100.00;100511.94;5051332;28;20028;-65
2022/12/06 10:11:38;;;;;;;19.02;12.18;;;;;;;9.54;100.00;100507.03;5050780;28;20067;-66
2022/12/06 10:14:16;;;;;;;18.75;11.77;;;;;;;9.67;100.00;100515.28;5051073;28;20029;-67
2022/12/06 10:17:17;;;;;;;13.18;11.77;;;;;;;9.69;100.00;100500.84;5050852;28;20041;-66
2022/12/06 10:20:01;;;;;;;10.43;7.95;;;;;;;10.54;100.00;100495.16;5047348;28;20043;-69
2022/12/06 10:22:58;;;;;;;15.02;10.25;;;;;;;9.49;100.00;100496.09;5038746;28;20033;-68
2022/12/06 10:25:30;;;;;;;15.43;12.27;;;;;;;9.63;100.00;100473.88;5046214;28;20034;-67
2022/12/06 10:27:55;;;;;;;;;;;;;;;9.69;100.00;100495.78;5031160;28;20415;-68
2022/12/06 10:30:21;;;;;;;15.13;10.48;;;;;;;9.67;100.00;100502.59;5030690;28;19917;-69
2022/12/06 10:32:53;;;;;;;17.02;12.20;;;;;;;9.85;100.00;100489.59;5030774;28;20555;-68
2022/12/06 10:35:37;;;;;;;20.00;15.75;;;;;;;9.81;100.00;100506.59;5031262;28;20033;-68
2022/12/06 10:38:36;;;;;;;16.13;13.75;;;;;;;9.86;100.00;100494.66;5034616;28;20033;-68
2022/12/06 10:41:13;;;;;;;22.02;15.75;;;;;;;9.46;100.00;100491.09;5048341;28;20433;-70
2022/12/06 10:43:57;;;;;;;49.95;39.58;;;;;;;9.68;100.00;100489.91;5049253;28;20029;-70
2022/12/06 10:49:30;;;;;;;48.72;36.88;;;;;;;11.00;100.00;100460.25;5050530;28;20106;-73
2022/12/06 10:52:27;;;;;;;29.33;24.17;;;;;;;9.04;100.00;100386.03;5050060;28;20584;-68
2022/12/06 10:55:07;;;;;;;28.35;20.50;;;;;;;9.65;100.00;100471.34;5050419;28;20025;-69
2022/12/06 10:57:47;;;;;;;20.00;15.88;;;;;;;9.09;100.00;100383.44;5050084;28;20549;-69
2022/12/06 11:00:13;;;;;;;26.15;19.58;;;;;;;9.62;100.00;100457.00;5049305;28;20083;-69
2022/12/06 11:03:05;;;;;;;30.33;21.10;;;;;;;9.69;100.00;100466.16;5049927;28;20166;-68
2022/12/06 11:05:41;;;;;;;25.23;17.90;;;;;;;9.63;100.00;100457.84;5044710;28;20041;-69
2022/12/06 11:08:17;;;;;;;23.48;16.23;;;;;;;9.03;100.00;100378.44;5050103;28;20029;-68
2022/12/06 11:10:45;;;;;;;20.67;15.80;;;;;;;9.26;100.00;100391.59;5048354;28;20067;-68
2022/12/06 11:13:25;;;;;;;23.27;18.25;;;;;;;9.08;100.00;100367.38;5050194;28;20037;-68
2022/12/06 11:16:09;;;;;;;27.00;21.08;;;;;;;9.53;100.00;100432.59;5049976;28;20036;-68
2022/12/06 11:18:36;;;;;;;26.77;21.42;;;;;;;9.10;100.00;100388.47;5050154;28;20467;-68
2022/12/06 11:21:36;;;;;;;21.00;16.92;;;;;;;9.00;100.00;100399.63;5049813;28;20029;-68
2022/12/06 11:24:12;;;;;;;23.80;18.15;;;;;;;9.63;100.00;100435.00;5050162;28;20115;-69
2022/12/06 11:26:42;;;;;;;22.13;18.40;;;;;;;9.16;100.00;100388.38;5050597;28;20040;-68
2022/12/06 11:29:13;;;;;;;22.67;18.60;;;;;;;9.27;100.00;100378.06;5050066;28;20116;-69
2022/12/06 11:31:44;;;;;;;27.20;20.30;;;;;;;9.47;100.00;100431.84;5049951;28;20495;-67
2022/12/06 11:34:15;;;;;;;29.25;21.13;;;;;;;9.66;100.00;100447.63;5049831;28;20116;-67
2022/12/06 11:36:41;;;;;;;23.83;17.80;;;;;;;9.41;100.00;100411.63;5049869;28;20041;-68
2022/12/06 11:39:06;;;;;;;20.42;15.90;;;;;;;9.34;100.00;100339.03;5049988;28;20503;-68
2022/12/06 11:41:35;;;;;;;18.63;13.82;;;;;;;9.77;100.00;100400.88;5049796;28;20036;-68
2022/12/06 11:44:01;;;;;;;22.30;16.77;;;;;;;9.72;100.00;100358.66;5049697;28;20060;-68
2022/12/06 11:46:27;;;;;;;35.22;24.83;;;;;;;9.77;100.00;100329.78;5049976;28;20403;-68
2022/12/06 11:49:03;;;;;;;17.75;12.95;;;;;;;10.05;100.00;100411.34;5049531;28;20032;-69
2022/12/06 11:51:28;;;;;;;16.30;12.70;;;;;;;10.06;100.00;100391.00;5049642;28;20510;-69
2022/12/06 11:54:02;;;;;;;21.83;18.45;;;;;;;10.13;100.00;100401.91;5050126;28;20029;-68
2022/12/06 11:56:31;;;;;;;18.00;13.35;;;;;;;10.22;100.00;100392.41;5053223;28;20032;-69